Flight Track Log - Related Links

Times and Time Zones

All times are in EDT time to prevent confusion due to time zone crossing. See the CSN6878 flight status page for this flight to view local times or setup timezone preferences in your user account.

Time Position Orientation Groundspeed Altitude Reporting Facility
EDT Latitude Longitude Course Direction KTS MPH feet Rate Location/Type
Fri 11:24:00 AM 42.3136 84.1424 55° Northeast  Level Estimated
Fri 11:25:00 AM 42.3790 84.2721 56° Northeast  Level Estimated
Fri 11:26:00 AM 42.4443 84.4021 56° Northeast  Level Estimated
Fri 11:27:00 AM 42.5095 84.5324 56° Northeast  Level Estimated
Fri 11:28:00 AM 42.5745 84.6629 56° Northeast  Level Estimated
Fri 11:29:00 AM 42.6393 84.7938 56° Northeast  Level Estimated
Fri 11:30:00 AM 42.7040 84.9248 56° Northeast  Level Estimated
Fri 11:31:00 AM 42.7686 85.0562 56° Northeast  Level Estimated
Fri 11:32:00 AM 42.8330 85.1878 56° Northeast  Level Estimated
Fri 11:33:00 AM 42.8973 85.3197 56° Northeast  Level Estimated
Fri 11:34:00 AM 42.9614 85.4519 56° Northeast  Level Estimated
Fri 11:35:00 AM 43.0253 85.5844 57° Northeast  Level Estimated
Fri 11:36:00 AM 43.0891 85.7171 57° Northeast  Level Estimated
Fri 11:37:00 AM 43.1528 85.8501 57° Northeast  Level Estimated
Fri 11:38:00 AM 43.2163 85.9834 57° Northeast  Level Estimated
Fri 11:39:00 AM 43.2796 86.1170 57° Northeast  Level Estimated
Fri 11:40:00 AM 43.3428 86.2508 57° Northeast  Level Estimated
Fri 11:41:00 AM 43.4058 86.3849 57° Northeast  Level Estimated
Fri 11:42:00 AM 43.4687 86.5193 57° Northeast  Level Estimated
Fri 11:43:00 AM 43.5314 86.6540 57° Northeast  Level Estimated
Fri 11:44:00 AM 43.5939 86.7889 57° Northeast  Level Estimated
Fri 11:45:00 AM 43.6563 86.9242 57° Northeast  Level Estimated
Fri 11:46:00 AM 43.7185 87.0597 58° Northeast  Level Estimated
Fri 11:47:00 AM 43.7806 87.1955 58° Northeast  Level Estimated
Fri 11:48:00 AM 43.8425 87.3316 58° Northeast  Level Estimated
Fri 11:49:00 AM 43.9043 87.4680 58° Northeast  Level Estimated
Fri 11:50:00 AM 43.9071 87.4742 58° Northeast  Level Estimated
Fri 11:51:00 AM 43.9071 87.4742 North  Level Estimated
Fri 11:52:00 AM 43.9071 87.4742 North  Level Estimated
Fri 11:53:00 AM 43.9071 87.4742 North  Level Estimated
Fri 11:54:00 AM 43.9071 87.4742 North  Level Estimated
Fri 11:55:00 AM 43.9071 87.4742 North  Level Estimated
Fri 11:56:00 AM 43.9071 87.4742 North  Level Estimated
Fri 11:57:00 AM 43.9071 87.4742 North  Level Estimated
Fri 11:58:00 AM 43.9071 87.4742 North  Level Estimated
Fri 11:59:00 AM 43.9071 87.4742 North  Level Estimated
Fri 12:00:00 PM 43.9071 87.4742 North  Level Estimated
Fri 12:01:00 PM 43.9071 87.4742 North  Level Estimated
Fri 12:02:00 PM 43.9071 87.4742 North  Level Estimated
Fri 12:03:00 PM 43.9071 87.4742 North  Level Estimated
Fri 12:04:00 PM 43.9071 87.4742 North  Level Estimated
Fri 12:05:00 PM 43.9071 87.4742 North  Level Estimated

Login

Don't have an account? Register now (free) for customized features, flight alerts, and more!